Latest Weather Observations for Campania

IDT60801

Issued at 3:31 pm EST Monday 23 September 2019 (issued every 10 minutes, with the page automatically refreshed every 10 minutes)

About weather observations | Map of weather stations | Latest weather observations for TAS | Other Formats
Station Details ID: 094212 Name: CAMPANIA (KINCORA) Lat: -42.69 Lon: 147.43 Height: 45.0 m
Data from the previous 72 hours. | See also: Recent months at Campania
Date/Time
EST
Temp
°C
App
Temp
°C
Dew
Point
°C
Rel
Hum
%
Delta-T
°C
Wind Press
QNH
hPa
Press
MSL
hPa
Rain since
9am
mm
Dir  Spd
km/h
Gust
km/h
Spd
kts
Gust
kts
23/03:30pm 14.5 10.1 2.7 45 5.3 W 15 22 8 12 - - 0.2
23/03:00pm 13.2 10.1 3.8 53 4.3 E 9 15 5 8 - - 0.2
23/02:30pm 11.5 7.2 5.4 66 2.8 SSE 17 26 9 14 - - 0.2
23/02:00pm 13.1 6.8 4.0 54 4.1 S 26 43 14 23 - - 0.2
23/01:30pm 15.5 11.2 3.0 43 5.7 W 15 22 8 12 - - 0.0
23/01:00pm 14.1 11.2 2.4 45 5.2 NW 7 13 4 7 - - 0.0
23/12:30pm 14.6 9.4 2.5 44 5.4 WNW 19 28 10 15 - - 0.0
23/12:00pm 14.1 10.7 3.8 50 4.7 WSW 11 24 6 13 - - 0.0
23/11:30am 14.0 10.9 3.5 49 4.7 NW 9 19 5 10 - - 0.0
23/11:00am 12.9 8.1 2.5 49 4.6 WNW 17 28 9 15 - - 0.0
23/10:30am 13.5 8.9 3.6 51 4.5 WSW 17 28 9 15 - - 0.0
23/10:00am 12.6 8.4 3.8 55 4.0 W 15 26 8 14 - - 0.0
23/09:30am 11.5 6.7 2.8 55 3.8 W 17 24 9 13 - - 0.0
23/09:00am 10.9 5.6 3.0 58 3.4 W 20 28 11 15 - - 0.0
23/08:30am 8.7 4.9 1.8 62 2.9 NNE 11 13 6 7 - - 0.0
23/08:00am 8.0 4.2 2.0 66 2.5 N 11 15 6 8 - - 0.0
23/07:30am 5.8 1.2 1.5 74 1.7 N 15 19 8 10 - - 0.0
23/07:00am 3.8 0.9 1.4 84 0.9 NNW 6 9 3 5 - - 0.0
23/06:30am 2.8 -0.4 0.5 85 0.9 WNW 7 11 4 6 - - 0.0
23/06:00am 2.1 -2.0 0.0 86 0.8 NE 11 15 6 8 - - 0.0
23/05:30am 1.4 -2.0 -0.4 88 0.7 N 7 9 4 5 - - 0.0
23/05:00am 2.3 -1.0 0.2 86 0.8 N 7 11 4 6 - - 0.0
23/04:30am 3.0 -1.7 0.7 85 0.9 N 15 17 8 9 - - 0.0
23/04:00am 1.9 -0.4 0.1 88 0.7 NNW 2 6 1 3 - - 0.0
23/03:30am 2.4 -0.6 0.6 88 0.7 NNW 6 7 3 4 - - 0.0
23/03:00am 1.9 -0.9 -0.3 85 0.8 SW 4 6 2 3 - - 0.0
23/02:30am 2.8 -0.5 0.2 83 1.0 NNE 7 9 4 5 - - 0.0
23/02:00am 3.2 -1.1 0.8 84 0.9 NNE 13 17 7 9 - - 0.0
23/01:30am 2.0 -0.8 -0.2 85 0.8 NW 4 11 2 6 - - 0.0
23/01:00am 2.9 -0.2 0.1 82 1.0 ENE 6 9 3 5 - - 0.0
23/12:30am 4.3 1.2 1.3 81 1.2 NNW 7 9 4 5 - - 0.0
23/12:00am 4.7 0.8 1.2 78 1.4 NNW 11 13 6 7 - - 0.0
 
Date/Time
EST
Temp
°C
App
Temp
°C
Dew
Point
°C
Rel
Hum
%
Delta-T
°C
Wind Press
QNH
hPa
Press
MSL
hPa
Rain since
9am
mm
Dir  Spd
km/h
Gust
km/h
Spd
kts
Gust
kts
22/11:30pm 4.7 0.8 1.4 79 1.3 NNW 11 13 6 7 - - 0.0
22/11:00pm 4.8 1.7 1.5 79 1.3 NW 7 13 4 7 - - 0.0
22/10:30pm 4.0 0.8 0.7 79 1.3 N 7 9 4 5 - - 0.0
22/10:00pm 4.4 1.5 1.3 80 1.2 N 6 7 3 4 - - 0.0
22/09:30pm 4.4 1.1 0.2 74 1.6 NNW 7 11 4 6 - - 0.0
22/09:00pm 6.1 3.0 1.1 70 2.0 NNW 7 9 4 5 - - 0.0
22/08:30pm 6.5 3.1 1.8 72 1.9 NNW 9 13 5 7 - - 0.0
22/08:00pm 6.3 3.4 2.4 76 1.6 WNW 7 9 4 5 - - 0.0
22/07:30pm 7.6 5.1 1.7 66 2.4 NNW 4 7 2 4 - - 0.0
22/07:00pm 8.6 4.8 1.5 61 2.9 WNW 11 15 6 8 - - 0.0
22/06:30pm 8.5 3.9 1.4 61 2.9 W 15 17 8 9 - - 0.0
22/06:00pm 9.4 3.1 1.3 57 3.3 WSW 24 32 13 17 - - 0.0
22/05:30pm 10.9 6.3 1.4 52 4.0 W 15 20 8 11 - - 0.0
22/05:00pm 11.4 6.7 1.1 49 4.3 W 15 20 8 11 - - 0.0
22/04:30pm 11.5 6.1 1.5 50 4.2 NNW 19 26 10 14 - - 0.0
22/04:00pm 12.5 7.1 1.2 46 4.8 NW 19 28 10 15 - - 0.0
22/03:30pm 13.2 6.9 1.5 45 5.0 NW 24 33 13 18 - - 0.0
22/03:00pm 12.0 6.4 1.1 47 4.6 NW 20 32 11 17 - - 0.0
22/02:30pm 12.8 7.2 1.5 46 4.8 NW 20 33 11 18 - - 0.0
22/02:00pm 11.7 5.0 3.7 58 3.6 W 28 39 15 21 - - 0.0
22/01:30pm 12.1 5.2 0.2 44 4.9 NW 26 39 14 21 - - 0.0
22/01:00pm 13.5 6.0 -1.6 35 6.1 NW 28 39 15 21 - - 0.0
22/12:30pm 13.5 7.6 -0.5 38 5.8 W 20 32 11 17 - - 0.0
22/12:00pm 13.4 7.3 0.4 41 5.5 NNW 22 33 12 18 - - 0.0
22/11:30am 11.7 6.1 0.2 45 4.7 WNW 19 32 10 17 - - 0.0
22/11:00am 11.3 5.8 0.4 47 4.5 NW 19 30 10 16 - - 0.0
22/10:30am 11.2 5.6 1.5 51 4.1 W 20 32 11 17 - - 0.0
22/10:00am 10.4 5.7 1.0 52 3.9 WNW 15 32 8 17 - - 0.0
22/09:30am 11.2 5.2 1.2 50 4.2 NW 22 30 12 16 - - 0.0
22/09:00am 10.6 5.0 1.2 52 3.9 NW 20 30 11 16 - - 0.0
22/08:30am 9.8 3.9 1.5 56 3.5 WNW 22 32 12 17 - - 0.0
22/08:00am 9.3 3.0 1.5 58 3.2 WNW 24 35 13 19 - - 0.0
22/07:30am 8.7 3.2 1.6 61 2.9 WNW 20 30 11 16 - - 0.0
22/07:00am 7.7 2.7 1.5 65 2.5 WNW 17 24 9 13 - - 0.0
22/06:30am 8.0 2.1 1.4 63 2.7 WNW 22 33 12 18 - - 0.0
22/06:00am 7.8 2.4 1.0 62 2.7 WNW 19 26 10 14 - - 0.0
22/05:30am 7.6 1.9 0.6 61 2.8 WNW 20 32 11 17 - - 0.0
22/05:00am 7.8 2.1 0.8 61 2.8 WNW 20 32 11 17 - - 0.0
22/04:30am 7.8 2.4 1.0 62 2.7 WNW 19 28 10 15 - - 0.0
22/04:00am 8.1 3.6 1.9 65 2.6 WNW 15 28 8 15 - - 0.0
22/03:30am 7.9 3.1 2.4 68 2.3 NW 17 28 9 15 - - 0.0
22/03:00am 8.1 3.6 2.1 66 2.5 WNW 15 20 8 11 - - 0.0
22/02:30am 8.0 4.2 2.0 66 2.5 WNW 11 17 6 9 - - 0.0
22/02:00am 7.8 4.4 2.1 67 2.4 NNW 9 17 5 9 - - 0.0
22/01:30am 8.7 4.1 1.8 62 2.9 NNW 15 26 8 14 - - 0.0
22/01:00am 9.4 3.5 2.0 60 3.1 NW 22 32 12 17 - - 0.0
22/12:30am 9.1 3.6 2.0 61 3.0 NNW 20 30 11 16 - - 0.0
22/12:00am 9.3 4.4 1.9 60 3.1 NNW 17 30 9 16 - - 0.0
 
Date/Time
EST
Temp
°C
App
Temp
°C
Dew
Point
°C
Rel
Hum
%
Delta-T
°C
Wind Press
QNH
hPa
Press
MSL
hPa
Rain since
9am
mm
Dir  Spd
km/h
Gust
km/h
Spd
kts
Gust
kts
21/11:30pm 9.6 4.3 2.0 59 3.2 NNW 19 30 10 16 - - 0.0
21/11:00pm 9.9 3.3 1.8 57 3.4 NW 26 37 14 20 - - 0.0
21/10:30pm 10.3 3.3 2.2 57 3.4 NW 28 43 15 23 - - 0.0
21/10:00pm 10.3 2.4 2.4 58 3.4 NW 33 57 18 31 - - 0.0
21/09:30pm 10.6 3.7 2.7 58 3.4 NNW 28 46 15 25 - - 0.0
21/09:00pm 11.5 3.4 3.0 56 3.7 NW 35 54 19 29 - - 0.0
21/08:34pm 12.4 3.2 3.4 54 4.0 NW 41 59 22 32 - - 0.0
21/08:30pm 12.5 3.3 3.5 54 4.0 NW 41 56 22 30 - - 0.0
21/08:00pm 13.7 4.7 4.3 53 4.3 NW 41 67 22 36 - - 0.0
21/07:35pm 15.7 9.3 5.0 49 5.1 NNW 28 50 15 27 - - 0.0
21/07:30pm 15.6 10.5 5.8 52 4.7 N 22 33 12 18 - - 0.0
21/07:00pm 14.6 9.6 8.1 65 3.3 N 24 37 13 20 - - 0.0
21/06:30pm 14.7 7.7 8.6 67 3.1 N 35 46 19 25 - - 0.0
21/06:04pm 15.2 8.7 8.9 66 3.2 N 33 54 18 29 - - 0.0
21/06:00pm 15.3 8.8 8.8 65 3.3 N 33 48 18 26 - - 0.0
21/05:39pm 16.2 10.6 8.7 61 3.8 N 28 46 15 25 - - 0.0
21/05:30pm 16.6 12.2 8.8 60 4.0 N 22 39 12 21 - - 0.0
21/05:00pm 16.0 9.1 11.6 75 2.4 N 39 57 21 31 - - 0.0
21/04:30pm 18.1 10.9 10.5 61 4.1 N 39 59 21 32 - - 0.0
21/04:01pm 17.3 11.4 10.4 64 3.7 N 32 50 17 27 - - 0.0
21/04:00pm 17.2 11.1 10.6 65 3.5 N 33 50 18 27 - - 0.0
21/03:30pm 18.2 10.1 10.1 59 4.3 N 43 76 23 41 - - 0.0
21/03:05pm 18.1 12.0 11.7 66 3.5 N 35 54 19 29 - - 0.0
21/03:00pm 18.1 12.7 12.1 68 3.3 N 32 41 17 22 - - 0.0
21/02:30pm 19.8 14.4 12.1 61 4.3 N 32 57 17 31 - - 0.0
21/02:28pm 20.1 15.5 12.3 61 4.4 N 28 46 15 25 - - 0.0
21/02:00pm 20.6 14.4 12.6 60 4.5 NNW 37 48 20 26 - - 0.0
21/01:30pm 22.6 17.1 11.7 50 6.1 N 32 52 17 28 - - 0.0
21/01:28pm 22.5 17.7 11.6 50 6.1 N 28 52 15 28 - - 0.0
21/01:00pm 20.8 17.4 11.4 55 5.2 N 20 32 11 17 - - 0.0
21/12:30pm 19.9 16.6 10.9 56 4.9 N 19 28 10 15 - - 0.0
21/12:00pm 17.0 16.3 12.1 73 2.7 SSW 7 11 4 6 - - 0.0
21/11:30am 16.7 16.0 12.0 74 2.6 SSE 7 11 4 6 - - 0.0
21/11:00am 16.3 15.1 11.7 74 2.5 S 9 13 5 7 - - 0.0
21/10:30am 16.2 14.9 11.4 73 2.6 SE 9 11 5 6 - - 0.0
21/10:00am 15.4 14.1 11.2 76 2.2 SSE 9 13 5 7 - - 0.0
21/09:30am 14.7 13.7 11.1 79 1.9 S 7 9 4 5 - - 0.0
21/09:00am 13.8 13.0 11.1 84 1.4 ESE 6 7 3 4 - - 0.0
21/08:30am 12.7 12.9 10.6 87 1.1 CALM 0 0 0 0 - - 0.0
21/08:00am 12.2 11.2 10.4 89 0.9 WSW 6 9 3 5 - - 0.0
21/07:30am 12.0 12.0 9.9 87 1.1 CALM 0 6 0 3 - - 0.0
21/07:00am 12.3 10.7 10.2 87 1.1 NNE 9 11 5 6 - - 0.0
21/06:30am 10.4 10.1 8.8 90 0.8 CALM 0 0 0 0 - - 0.0
21/06:00am 10.9 10.8 9.5 91 0.7 CALM 0 0 0 0 - - 0.0
21/05:30am 11.1 10.1 9.0 87 1.0 N 4 7 2 4 - - 0.0
21/05:00am 12.5 11.4 10.0 85 1.3 N 6 9 3 5 - - 0.0
21/04:30am 12.5 11.1 9.7 83 1.4 NNE 7 11 4 6 - - 0.0
21/04:00am 11.8 11.7 9.4 85 1.2 CALM 0 6 0 3 - - 0.0
21/03:30am 13.1 10.8 10.3 83 1.5 NNE 13 15 7 8 - - 0.0
21/03:00am 13.5 10.8 10.5 82 1.6 NNE 15 17 8 9 - - 0.0
21/02:30am 13.6 11.0 10.6 82 1.6 NE 15 19 8 10 - - 0.0
21/02:00am 13.1 10.8 10.6 85 1.3 NNE 13 17 7 9 - - 0.0
21/01:30am 14.3 11.1 11.1 81 1.7 N 19 20 10 11 - - 0.0
21/01:00am 14.8 12.5 10.4 75 2.3 N 13 17 7 9 - - 0.0
21/12:30am 15.5 13.2 10.5 72 2.6 N 13 17 7 9 - - 0.0
21/12:00am 16.0 13.3 10.5 70 2.9 NNE 15 17 8 9 - - 0.0
 
Date/Time
EST
Temp
°C
App
Temp
°C
Dew
Point
°C
Rel
Hum
%
Delta-T
°C
Wind Press
QNH
hPa
Press
MSL
hPa
Rain since
9am
mm
Dir  Spd
km/h
Gust
km/h
Spd
kts
Gust
kts
20/11:30pm 17.2 13.9 10.8 66 3.4 NNE 19 20 10 11 - - 0.0
20/11:00pm 18.3 16.8 10.4 60 4.2 NNW 9 15 5 8 - - 0.0
20/10:30pm 16.4 15.5 10.5 68 3.1 N 6 9 3 5 - - 0.0
20/10:00pm 17.3 17.2 10.9 66 3.4 N 2 7 1 4 - - 0.0
20/09:30pm 17.4 15.6 10.8 65 3.5 NNE 11 13 6 7 - - 0.0
20/09:00pm 18.9 16.7 10.7 59 4.4 N 13 20 7 11 - - 0.0
20/08:30pm 19.1 16.5 10.6 58 4.6 N 15 19 8 10 - - 0.0
20/08:00pm 19.3 16.6 10.3 56 4.8 N 15 20 8 11 - - 0.0
20/07:30pm 20.5 16.8 10.0 51 5.7 N 20 30 11 16 - - 0.0
20/07:00pm 20.2 17.1 10.3 53 5.4 N 17 20 9 11 - - 0.0
20/06:30pm 20.6 17.8 11.2 55 5.2 N 17 22 9 12 - - 0.0
20/06:00pm 20.8 18.3 10.9 53 5.4 N 15 24 8 13 - - 0.0
20/05:30pm 21.3 19.6 11.3 53 5.5 N 11 17 6 9 - - 0.0
20/05:00pm 22.1 19.3 11.2 50 6.1 N 17 20 9 11 - - 0.0
20/04:30pm 22.5 18.9 10.6 47 6.6 N 20 28 11 15 - - 0.0
20/04:00pm 23.4 19.3 11.5 47 6.7 N 24 35 13 19 - - 0.0

Other formats

Comma delimited format used in spreadsheet applications
http://www.bom.gov.au/fwo/IDT60801/IDT60801.95972.axf

JavaScript Object Notation format (JSON) in row-major order
http://www.bom.gov.au/fwo/IDT60801/IDT60801.95972.json

Data quality

Most of these data are generated automatically and are frequently updated. Quality checks on data are not normally performed. It is possible for incorrect values to appear. Refer to information at About Latest Weather Observations and please check the disclaimer before using these data.